sensor_id;sensor_type;location;lat;lon;timestamp;P1;durP1;ratioP1;P2;durP2;ratioP2
26806;SDS011;14380;49.910;6.792;2023-07-24T00:01:50;0.82;;;0.40;;
26806;SDS011;14380;49.910;6.792;2023-07-24T00:04:17;0.45;;;0.40;;
26806;SDS011;14380;49.910;6.792;2023-07-24T00:06:44;0.30;;;0.30;;
26806;SDS011;14380;49.910;6.792;2023-07-24T00:09:10;0.60;;;0.40;;
26806;SDS011;14380;49.910;6.792;2023-07-24T00:11:37;0.28;;;0.28;;
26806;SDS011;14380;49.910;6.792;2023-07-24T00:14:04;1.02;;;0.32;;
26806;SDS011;14380;49.910;6.792;2023-07-24T00:16:31;0.40;;;0.40;;
26806;SDS011;14380;49.910;6.792;2023-07-24T00:18:59;0.60;;;0.40;;
26806;SDS011;14380;49.910;6.792;2023-07-24T00:21:26;1.23;;;0.40;;
26806;SDS011;14380;49.910;6.792;2023-07-24T00:23:53;0.20;;;0.20;;
26806;SDS011;14380;49.910;6.792;2023-07-24T00:26:19;0.30;;;0.30;;
26806;SDS011;14380;49.910;6.792;2023-07-24T00:28:46;0.30;;;0.30;;
26806;SDS011;14380;49.910;6.792;2023-07-24T00:31:13;0.40;;;0.40;;
26806;SDS011;14380;49.910;6.792;2023-07-24T00:33:40;0.50;;;0.30;;
26806;SDS011;14380;49.910;6.792;2023-07-24T00:36:09;0.20;;;0.20;;
26806;SDS011;14380;49.910;6.792;2023-07-24T00:38:36;1.38;;;0.40;;
26806;SDS011;14380;49.910;6.792;2023-07-24T00:41:03;0.25;;;0.25;;
26806;SDS011;14380;49.910;6.792;2023-07-24T00:43:30;0.20;;;0.20;;
26806;SDS011;14380;49.910;6.792;2023-07-24T00:45:56;0.95;;;0.57;;
26806;SDS011;14380;49.910;6.792;2023-07-24T00:48:24;0.43;;;0.43;;
26806;SDS011;14380;49.910;6.792;2023-07-24T00:50:50;0.40;;;0.20;;
26806;SDS011;14380;49.910;6.792;2023-07-24T00:53:19;0.35;;;0.35;;
26806;SDS011;14380;49.910;6.792;2023-07-24T00:55:46;0.20;;;0.20;;
26806;SDS011;14380;49.910;6.792;2023-07-24T00:58:13;0.82;;;0.43;;
26806;SDS011;14380;49.910;6.792;2023-07-24T01:00:43;0.90;;;0.47;;
26806;SDS011;14380;49.910;6.792;2023-07-24T01:03:10;0.45;;;0.40;;
26806;SDS011;14380;49.910;6.792;2023-07-24T01:05:37;0.90;;;0.50;;
26806;SDS011;14380;49.910;6.792;2023-07-24T01:08:05;0.40;;;0.40;;
26806;SDS011;14380;49.910;6.792;2023-07-24T01:10:33;0.40;;;0.40;;
26806;SDS011;14380;49.910;6.792;2023-07-24T01:13:02;0.35;;;0.35;;
26806;SDS011;14380;49.910;6.792;2023-07-24T01:15:34;1.00;;;0.50;;
26806;SDS011;14380;49.910;6.792;2023-07-24T01:18:06;1.75;;;0.60;;
26806;SDS011;14380;49.910;6.792;2023-07-24T01:20:35;1.27;;;0.47;;
26806;SDS011;14380;49.910;6.792;2023-07-24T01:23:07;0.57;;;0.40;;
26806;SDS011;14380;49.910;6.792;2023-07-24T01:25:49;0.68;;;0.50;;
26806;SDS011;14380;49.910;6.792;2023-07-24T01:28:20;0.40;;;0.30;;
26806;SDS011;14380;49.910;6.792;2023-07-24T01:30:47;1.05;;;0.70;;
26806;SDS011;14380;49.910;6.792;2023-07-24T01:33:14;0.50;;;0.30;;
26806;SDS011;14380;49.910;6.792;2023-07-24T01:35:41;0.40;;;0.40;;
26806;SDS011;14380;49.910;6.792;2023-07-24T01:38:10;0.50;;;0.43;;
26806;SDS011;14380;49.910;6.792;2023-07-24T01:40:38;0.20;;;0.20;;
26806;SDS011;14380;49.910;6.792;2023-07-24T01:43:07;0.47;;;0.30;;
26806;SDS011;14380;49.910;6.792;2023-07-24T01:45:34;1.50;;;0.70;;
26806;SDS011;14380;49.910;6.792;2023-07-24T01:48:03;2.50;;;0.32;;
26806;SDS011;14380;49.910;6.792;2023-07-24T01:50:30;0.65;;;0.32;;
26806;SDS011;14380;49.910;6.792;2023-07-24T01:52:57;0.40;;;0.40;;
26806;SDS011;14380;49.910;6.792;2023-07-24T01:55:23;0.45;;;0.38;;
26806;SDS011;14380;49.910;6.792;2023-07-24T01:57:50;0.47;;;0.40;;
26806;SDS011;14380;49.910;6.792;2023-07-24T02:00:18;0.30;;;0.25;;
26806;SDS011;14380;49.910;6.792;2023-07-24T02:02:44;0.57;;;0.30;;
26806;SDS011;14380;49.910;6.792;2023-07-24T02:05:11;1.27;;;0.30;;
26806;SDS011;14380;49.910;6.792;2023-07-24T02:07:38;0.45;;;0.45;;
26806;SDS011;14380;49.910;6.792;2023-07-24T02:10:05;1.17;;;0.40;;
26806;SDS011;14380;49.910;6.792;2023-07-24T02:12:32;0.45;;;0.35;;
26806;SDS011;14380;49.910;6.792;2023-07-24T02:14:59;0.52;;;0.43;;
26806;SDS011;14380;49.910;6.792;2023-07-24T02:17:27;1.05;;;0.43;;
26806;SDS011;14380;49.910;6.792;2023-07-24T02:19:53;0.45;;;0.38;;
26806;SDS011;14380;49.910;6.792;2023-07-24T02:22:20;1.65;;;0.45;;
26806;SDS011;14380;49.910;6.792;2023-07-24T02:24:46;4.30;;;1.00;;
26806;SDS011;14380;49.910;6.792;2023-07-24T02:27:13;0.90;;;0.30;;
26806;SDS011;14380;49.910;6.792;2023-07-24T02:29:50;0.85;;;0.50;;
26806;SDS011;14380;49.910;6.792;2023-07-24T02:32:16;0.40;;;0.25;;
26806;SDS011;14380;49.910;6.792;2023-07-24T02:34:47;0.57;;;0.57;;
26806;SDS011;14380;49.910;6.792;2023-07-24T02:37:15;1.00;;;0.30;;
26806;SDS011;14380;49.910;6.792;2023-07-24T02:39:42;0.68;;;0.47;;
26806;SDS011;14380;49.910;6.792;2023-07-24T02:42:09;0.50;;;0.45;;
26806;SDS011;14380;49.910;6.792;2023-07-24T02:44:35;0.73;;;0.52;;
26806;SDS011;14380;49.910;6.792;2023-07-24T02:47:02;0.75;;;0.35;;
26806;SDS011;14380;49.910;6.792;2023-07-24T02:49:29;0.45;;;0.45;;
26806;SDS011;14380;49.910;6.792;2023-07-24T02:51:56;0.63;;;0.50;;
26806;SDS011;14380;49.910;6.792;2023-07-24T02:54:23;1.42;;;0.63;;
26806;SDS011;14380;49.910;6.792;2023-07-24T02:56:51;0.30;;;0.30;;
26806;SDS011;14380;49.910;6.792;2023-07-24T02:59:18;0.50;;;0.50;;
26806;SDS011;14380;49.910;6.792;2023-07-24T03:01:44;1.80;;;0.50;;
26806;SDS011;14380;49.910;6.792;2023-07-24T03:04:11;0.68;;;0.52;;
26806;SDS011;14380;49.910;6.792;2023-07-24T03:06:38;0.50;;;0.30;;
26806;SDS011;14380;49.910;6.792;2023-07-24T03:09:07;0.60;;;0.47;;
26806;SDS011;14380;49.910;6.792;2023-07-24T03:11:33;0.63;;;0.60;;
26806;SDS011;14380;49.910;6.792;2023-07-24T03:14:00;0.43;;;0.30;;
26806;SDS011;14380;49.910;6.792;2023-07-24T03:16:26;0.73;;;0.52;;
26806;SDS011;14380;49.910;6.792;2023-07-24T03:18:53;0.73;;;0.55;;
26806;SDS011;14380;49.910;6.792;2023-07-24T03:21:20;1.00;;;0.55;;
26806;SDS011;14380;49.910;6.792;2023-07-24T03:23:47;1.38;;;0.85;;
26806;SDS011;14380;49.910;6.792;2023-07-24T03:26:15;0.82;;;0.32;;
26806;SDS011;14380;49.910;6.792;2023-07-24T03:28:42;0.93;;;0.40;;
26806;SDS011;14380;49.910;6.792;2023-07-24T03:31:08;0.90;;;0.55;;
26806;SDS011;14380;49.910;6.792;2023-07-24T03:33:35;1.67;;;0.70;;
26806;SDS011;14380;49.910;6.792;2023-07-24T03:36:02;0.85;;;0.43;;
26806;SDS011;14380;49.910;6.792;2023-07-24T03:38:28;2.78;;;0.95;;
26806;SDS011;14380;49.910;6.792;2023-07-24T03:40:55;2.00;;;1.05;;
26806;SDS011;14380;49.910;6.792;2023-07-24T03:43:23;1.70;;;0.80;;
26806;SDS011;14380;49.910;6.792;2023-07-24T03:45:50;0.65;;;0.60;;
26806;SDS011;14380;49.910;6.792;2023-07-24T03:48:16;0.82;;;0.57;;
26806;SDS011;14380;49.910;6.792;2023-07-24T03:50:43;2.55;;;0.82;;
26806;SDS011;14380;49.910;6.792;2023-07-24T03:53:09;1.17;;;0.75;;
26806;SDS011;14380;49.910;6.792;2023-07-24T03:55:36;0.43;;;0.30;;
26806;SDS011;14380;49.910;6.792;2023-07-24T03:58:03;0.43;;;0.43;;
26806;SDS011;14380;49.910;6.792;2023-07-24T04:00:31;1.08;;;0.50;;
26806;SDS011;14380;49.910;6.792;2023-07-24T04:02:58;0.80;;;0.50;;
26806;SDS011;14380;49.910;6.792;2023-07-24T04:05:25;1.10;;;0.40;;
26806;SDS011;14380;49.910;6.792;2023-07-24T04:07:52;0.85;;;0.50;;
26806;SDS011;14380;49.910;6.792;2023-07-24T04:10:18;2.40;;;0.80;;
26806;SDS011;14380;49.910;6.792;2023-07-24T04:12:45;1.45;;;0.80;;
26806;SDS011;14380;49.910;6.792;2023-07-24T04:15:12;1.27;;;0.80;;
26806;SDS011;14380;49.910;6.792;2023-07-24T04:17:40;0.50;;;0.50;;
26806;SDS011;14380;49.910;6.792;2023-07-24T04:20:07;1.08;;;0.63;;
26806;SDS011;14380;49.910;6.792;2023-07-24T04:22:35;1.33;;;0.52;;
26806;SDS011;14380;49.910;6.792;2023-07-24T04:25:02;4.03;;;0.80;;
26806;SDS011;14380;49.910;6.792;2023-07-24T04:27:29;0.70;;;0.50;;
26806;SDS011;14380;49.910;6.792;2023-07-24T04:29:56;0.82;;;0.40;;
26806;SDS011;14380;49.910;6.792;2023-07-24T04:32:23;1.90;;;0.80;;
26806;SDS011;14380;49.910;6.792;2023-07-24T04:34:51;1.85;;;0.80;;
26806;SDS011;14380;49.910;6.792;2023-07-24T04:37:17;2.28;;;0.95;;
26806;SDS011;14380;49.910;6.792;2023-07-24T04:39:44;0.82;;;0.73;;
26806;SDS011;14380;49.910;6.792;2023-07-24T04:42:11;0.52;;;0.50;;
26806;SDS011;14380;49.910;6.792;2023-07-24T04:44:37;2.92;;;0.95;;
26806;SDS011;14380;49.910;6.792;2023-07-24T04:47:04;1.73;;;0.68;;
26806;SDS011;14380;49.910;6.792;2023-07-24T04:49:31;1.38;;;0.90;;
26806;SDS011;14380;49.910;6.792;2023-07-24T04:51:59;1.27;;;1.00;;
26806;SDS011;14380;49.910;6.792;2023-07-24T04:54:26;1.13;;;0.82;;
26806;SDS011;14380;49.910;6.792;2023-07-24T04:56:52;1.25;;;0.73;;
26806;SDS011;14380;49.910;6.792;2023-07-24T04:59:19;2.35;;;0.98;;
26806;SDS011;14380;49.910;6.792;2023-07-24T05:01:45;1.05;;;0.65;;
26806;SDS011;14380;49.910;6.792;2023-07-24T05:04:12;2.53;;;1.45;;
26806;SDS011;14380;49.910;6.792;2023-07-24T05:06:39;1.00;;;0.63;;
26806;SDS011;14380;49.910;6.792;2023-07-24T05:09:07;4.70;;;1.50;;
26806;SDS011;14380;49.910;6.792;2023-07-24T05:11:33;1.63;;;1.20;;
26806;SDS011;14380;49.910;6.792;2023-07-24T05:14:00;1.23;;;0.80;;
26806;SDS011;14380;49.910;6.792;2023-07-24T05:16:27;1.52;;;0.80;;
26806;SDS011;14380;49.910;6.792;2023-07-24T05:18:54;1.17;;;0.60;;
26806;SDS011;14380;49.910;6.792;2023-07-24T05:21:20;1.63;;;0.77;;
26806;SDS011;14380;49.910;6.792;2023-07-24T05:23:47;1.40;;;0.63;;
26806;SDS011;14380;49.910;6.792;2023-07-24T05:26:15;0.70;;;0.70;;
26806;SDS011;14380;49.910;6.792;2023-07-24T05:28:42;0.98;;;0.60;;
26806;SDS011;14380;49.910;6.792;2023-07-24T05:31:09;1.27;;;0.70;;
26806;SDS011;14380;49.910;6.792;2023-07-24T05:33:35;1.70;;;0.70;;
26806;SDS011;14380;49.910;6.792;2023-07-24T05:36:02;1.92;;;0.82;;
26806;SDS011;14380;49.910;6.792;2023-07-24T05:38:30;1.10;;;0.75;;
26806;SDS011;14380;49.910;6.792;2023-07-24T05:40:57;1.27;;;0.73;;
26806;SDS011;14380;49.910;6.792;2023-07-24T05:43:26;1.10;;;0.70;;
26806;SDS011;14380;49.910;6.792;2023-07-24T05:45:53;1.92;;;0.68;;
26806;SDS011;14380;49.910;6.792;2023-07-24T05:48:21;3.78;;;0.63;;
26806;SDS011;14380;49.910;6.792;2023-07-24T05:50:48;6.55;;;1.58;;
26806;SDS011;14380;49.910;6.792;2023-07-24T05:53:16;1.30;;;0.80;;
26806;SDS011;14380;49.910;6.792;2023-07-24T05:55:43;1.00;;;0.55;;
26806;SDS011;14380;49.910;6.792;2023-07-24T05:58:10;2.70;;;1.05;;
26806;SDS011;14380;49.910;6.792;2023-07-24T06:00:38;2.25;;;0.60;;
26806;SDS011;14380;49.910;6.792;2023-07-24T06:03:05;0.88;;;0.60;;
26806;SDS011;14380;49.910;6.792;2023-07-24T06:05:31;1.10;;;0.68;;
26806;SDS011;14380;49.910;6.792;2023-07-24T06:07:58;2.78;;;0.95;;
26806;SDS011;14380;49.910;6.792;2023-07-24T06:10:24;1.75;;;0.80;;
26806;SDS011;14380;49.910;6.792;2023-07-24T06:12:51;1.00;;;0.60;;
26806;SDS011;14380;49.910;6.792;2023-07-24T06:15:18;0.82;;;0.65;;
26806;SDS011;14380;49.910;6.792;2023-07-24T06:17:46;0.80;;;0.60;;
26806;SDS011;14380;49.910;6.792;2023-07-24T06:20:12;2.00;;;0.80;;
26806;SDS011;14380;49.910;6.792;2023-07-24T06:22:39;1.00;;;0.80;;
26806;SDS011;14380;49.910;6.792;2023-07-24T06:25:06;2.15;;;1.02;;
26806;SDS011;14380;49.910;6.792;2023-07-24T06:27:33;1.55;;;0.85;;
26806;SDS011;14380;49.910;6.792;2023-07-24T06:29:59;0.73;;;0.73;;
26806;SDS011;14380;49.910;6.792;2023-07-24T06:32:26;0.95;;;0.60;;
26806;SDS011;14380;49.910;6.792;2023-07-24T06:34:54;1.05;;;0.57;;
26806;SDS011;14380;49.910;6.792;2023-07-24T06:37:21;1.02;;;0.50;;
26806;SDS011;14380;49.910;6.792;2023-07-24T06:39:48;1.75;;;0.88;;
26806;SDS011;14380;49.910;6.792;2023-07-24T06:42:14;1.85;;;0.85;;
26806;SDS011;14380;49.910;6.792;2023-07-24T06:44:41;1.10;;;0.77;;
26806;SDS011;14380;49.910;6.792;2023-07-24T06:47:07;2.25;;;0.70;;
26806;SDS011;14380;49.910;6.792;2023-07-24T06:49:34;1.40;;;0.75;;
26806;SDS011;14380;49.910;6.792;2023-07-24T06:52:02;2.20;;;0.82;;
26806;SDS011;14380;49.910;6.792;2023-07-24T06:54:29;1.85;;;0.93;;
26806;SDS011;14380;49.910;6.792;2023-07-24T06:56:56;0.90;;;0.40;;
26806;SDS011;14380;49.910;6.792;2023-07-24T06:59:22;1.23;;;0.68;;
26806;SDS011;14380;49.910;6.792;2023-07-24T07:01:49;1.17;;;0.75;;
26806;SDS011;14380;49.910;6.792;2023-07-24T07:04:16;1.90;;;0.90;;
26806;SDS011;14380;49.910;6.792;2023-07-24T07:06:42;2.15;;;0.90;;
26806;SDS011;14380;49.910;6.792;2023-07-24T07:09:10;2.70;;;1.63;;
26806;SDS011;14380;49.910;6.792;2023-07-24T07:11:37;1.30;;;0.93;;
26806;SDS011;14380;49.910;6.792;2023-07-24T07:14:03;1.92;;;0.82;;
26806;SDS011;14380;49.910;6.792;2023-07-24T07:16:33;2.25;;;0.98;;
26806;SDS011;14380;49.910;6.792;2023-07-24T07:19:00;5.45;;;1.75;;
26806;SDS011;14380;49.910;6.792;2023-07-24T07:21:27;0.95;;;0.80;;
26806;SDS011;14380;49.910;6.792;2023-07-24T07:23:54;1.25;;;0.82;;
26806;SDS011;14380;49.910;6.792;2023-07-24T07:26:22;2.08;;;1.00;;
26806;SDS011;14380;49.910;6.792;2023-07-24T07:28:49;2.20;;;0.90;;
26806;SDS011;14380;49.910;6.792;2023-07-24T07:31:16;1.65;;;0.80;;
26806;SDS011;14380;49.910;6.792;2023-07-24T07:33:43;2.40;;;1.15;;
26806;SDS011;14380;49.910;6.792;2023-07-24T07:36:10;1.73;;;0.80;;
26806;SDS011;14380;49.910;6.792;2023-07-24T07:38:37;2.47;;;1.20;;
26806;SDS011;14380;49.910;6.792;2023-07-24T07:41:04;2.42;;;1.05;;
26806;SDS011;14380;49.910;6.792;2023-07-24T07:43:33;2.15;;;0.93;;
26806;SDS011;14380;49.910;6.792;2023-07-24T07:46:01;2.63;;;1.48;;
26806;SDS011;14380;49.910;6.792;2023-07-24T07:48:27;2.03;;;1.17;;
26806;SDS011;14380;49.910;6.792;2023-07-24T07:50:54;2.15;;;0.80;;
26806;SDS011;14380;49.910;6.792;2023-07-24T07:53:21;1.38;;;0.90;;
26806;SDS011;14380;49.910;6.792;2023-07-24T07:55:54;1.63;;;0.60;;
26806;SDS011;14380;49.910;6.792;2023-07-24T07:58:22;2.58;;;1.05;;
26806;SDS011;14380;49.910;6.792;2023-07-24T08:00:51;1.23;;;0.90;;
26806;SDS011;14380;49.910;6.792;2023-07-24T08:03:18;4.40;;;1.10;;
26806;SDS011;14380;49.910;6.792;2023-07-24T08:05:44;1.95;;;1.10;;
26806;SDS011;14380;49.910;6.792;2023-07-24T08:08:11;3.58;;;1.15;;
26806;SDS011;14380;49.910;6.792;2023-07-24T08:10:37;1.58;;;0.90;;
26806;SDS011;14380;49.910;6.792;2023-07-24T08:13:04;2.67;;;0.77;;
26806;SDS011;14380;49.910;6.792;2023-07-24T08:15:33;1.92;;;1.27;;
26806;SDS011;14380;49.910;6.792;2023-07-24T08:18:02;1.80;;;1.00;;
26806;SDS011;14380;49.910;6.792;2023-07-24T08:20:29;1.85;;;1.00;;
26806;SDS011;14380;49.910;6.792;2023-07-24T08:22:56;2.58;;;1.20;;
26806;SDS011;14380;49.910;6.792;2023-07-24T08:25:22;2.67;;;1.35;;
26806;SDS011;14380;49.910;6.792;2023-07-24T08:27:49;1.45;;;0.90;;
26806;SDS011;14380;49.910;6.792;2023-07-24T08:30:16;2.45;;;1.40;;
26806;SDS011;14380;49.910;6.792;2023-07-24T08:32:43;2.78;;;1.40;;
26806;SDS011;14380;49.910;6.792;2023-07-24T08:35:12;3.08;;;1.25;;
26806;SDS011;14380;49.910;6.792;2023-07-24T08:37:42;3.38;;;1.13;;
26806;SDS011;14380;49.910;6.792;2023-07-24T08:40:09;2.17;;;1.02;;
26806;SDS011;14380;49.910;6.792;2023-07-24T08:42:38;1.55;;;0.98;;
26806;SDS011;14380;49.910;6.792;2023-07-24T08:45:06;2.13;;;1.27;;
26806;SDS011;14380;49.910;6.792;2023-07-24T08:47:37;1.58;;;0.90;;
26806;SDS011;14380;49.910;6.792;2023-07-24T08:50:06;3.63;;;1.27;;
26806;SDS011;14380;49.910;6.792;2023-07-24T08:52:37;2.35;;;1.35;;
26806;SDS011;14380;49.910;6.792;2023-07-24T08:55:05;2.17;;;1.10;;
26806;SDS011;14380;49.910;6.792;2023-07-24T08:57:33;2.38;;;1.20;;
26806;SDS011;14380;49.910;6.792;2023-07-24T09:00:00;2.67;;;1.00;;
26806;SDS011;14380;49.910;6.792;2023-07-24T09:02:29;1.33;;;0.90;;
26806;SDS011;14380;49.910;6.792;2023-07-24T09:04:57;2.53;;;0.88;;
26806;SDS011;14380;49.910;6.792;2023-07-24T09:07:23;1.60;;;0.93;;
26806;SDS011;14380;49.910;6.792;2023-07-24T09:09:52;6.25;;;1.48;;
26806;SDS011;14380;49.910;6.792;2023-07-24T09:12:19;1.63;;;1.08;;
26806;SDS011;14380;49.910;6.792;2023-07-24T09:14:47;1.55;;;0.63;;
26806;SDS011;14380;49.910;6.792;2023-07-24T09:17:14;1.95;;;1.10;;
26806;SDS011;14380;49.910;6.792;2023-07-24T09:19:40;5.32;;;0.93;;
26806;SDS011;14380;49.910;6.792;2023-07-24T09:22:09;2.08;;;1.00;;
26806;SDS011;14380;49.910;6.792;2023-07-24T09:24:37;2.05;;;0.93;;
26806;SDS011;14380;49.910;6.792;2023-07-24T09:27:06;2.33;;;0.82;;
26806;SDS011;14380;49.910;6.792;2023-07-24T09:29:34;4.60;;;0.90;;
26806;SDS011;14380;49.910;6.792;2023-07-24T09:32:01;2.13;;;0.90;;
26806;SDS011;14380;49.910;6.792;2023-07-24T09:34:28;3.30;;;0.90;;
26806;SDS011;14380;49.910;6.792;2023-07-24T09:36:55;0.88;;;0.50;;
26806;SDS011;14380;49.910;6.792;2023-07-24T09:39:24;1.42;;;0.40;;
26806;SDS011;14380;49.910;6.792;2023-07-24T09:41:51;3.70;;;1.00;;
26806;SDS011;14380;49.910;6.792;2023-07-24T09:44:21;0.85;;;0.75;;
26806;SDS011;14380;49.910;6.792;2023-07-24T09:46:52;1.40;;;0.82;;
26806;SDS011;14380;49.910;6.792;2023-07-24T09:49:19;2.30;;;0.85;;
26806;SDS011;14380;49.910;6.792;2023-07-24T09:51:46;2.83;;;1.17;;
26806;SDS011;14380;49.910;6.792;2023-07-24T09:54:19;1.05;;;0.63;;
26806;SDS011;14380;49.910;6.792;2023-07-24T09:56:52;2.55;;;1.33;;
26806;SDS011;14380;49.910;6.792;2023-07-24T09:59:21;1.35;;;0.73;;
26806;SDS011;14380;49.910;6.792;2023-07-24T10:01:49;1.67;;;0.77;;
26806;SDS011;14380;49.910;6.792;2023-07-24T10:04:17;1.92;;;0.88;;
26806;SDS011;14380;49.910;6.792;2023-07-24T10:06:44;0.93;;;0.80;;
26806;SDS011;14380;49.910;6.792;2023-07-24T10:09:12;1.15;;;0.80;;
26806;SDS011;14380;49.910;6.792;2023-07-24T10:11:40;1.65;;;0.90;;
26806;SDS011;14380;49.910;6.792;2023-07-24T10:14:07;1.70;;;0.50;;
26806;SDS011;14380;49.910;6.792;2023-07-24T10:16:36;1.10;;;0.90;;
26806;SDS011;14380;49.910;6.792;2023-07-24T10:19:12;1.05;;;0.90;;
26806;SDS011;14380;49.910;6.792;2023-07-24T10:21:43;1.30;;;0.50;;
26806;SDS011;14380;49.910;6.792;2023-07-24T10:24:11;1.40;;;0.60;;
26806;SDS011;14380;49.910;6.792;2023-07-24T10:26:38;0.52;;;0.50;;
26806;SDS011;14380;49.910;6.792;2023-07-24T10:29:05;1.58;;;0.98;;
26806;SDS011;14380;49.910;6.792;2023-07-24T10:31:32;1.95;;;0.88;;
26806;SDS011;14380;49.910;6.792;2023-07-24T10:34:04;1.25;;;0.68;;
26806;SDS011;14380;49.910;6.792;2023-07-24T10:36:33;0.45;;;0.38;;
26806;SDS011;14380;49.910;6.792;2023-07-24T10:39:12;1.27;;;0.70;;
26806;SDS011;14380;49.910;6.792;2023-07-24T10:41:40;1.40;;;0.60;;
26806;SDS011;14380;49.910;6.792;2023-07-24T10:44:09;0.65;;;0.60;;
26806;SDS011;14380;49.910;6.792;2023-07-24T10:46:36;1.10;;;0.60;;
26806;SDS011;14380;49.910;6.792;2023-07-24T10:49:05;3.67;;;1.48;;
26806;SDS011;14380;49.910;6.792;2023-07-24T10:51:33;0.80;;;0.60;;
26806;SDS011;14380;49.910;6.792;2023-07-24T10:54:02;1.63;;;0.85;;
26806;SDS011;14380;49.910;6.792;2023-07-24T10:56:30;2.03;;;0.63;;
26806;SDS011;14380;49.910;6.792;2023-07-24T10:59:01;0.75;;;0.60;;
26806;SDS011;14380;49.910;6.792;2023-07-24T11:01:28;1.13;;;0.63;;
26806;SDS011;14380;49.910;6.792;2023-07-24T11:03:56;0.88;;;0.55;;
26806;SDS011;14380;49.910;6.792;2023-07-24T11:06:24;1.25;;;0.47;;
26806;SDS011;14380;49.910;6.792;2023-07-24T11:08:51;0.75;;;0.50;;
26806;SDS011;14380;49.910;6.792;2023-07-24T11:11:21;0.30;;;0.30;;
26806;SDS011;14380;49.910;6.792;2023-07-24T11:13:48;1.77;;;0.70;;
26806;SDS011;14380;49.910;6.792;2023-07-24T11:16:15;2.22;;;0.70;;
26806;SDS011;14380;49.910;6.792;2023-07-24T11:18:45;1.00;;;0.40;;
26806;SDS011;14380;49.910;6.792;2023-07-24T11:21:13;0.68;;;0.50;;
26806;SDS011;14380;49.910;6.792;2023-07-24T11:23:46;0.60;;;0.30;;
26806;SDS011;14380;49.910;6.792;2023-07-24T11:26:13;0.70;;;0.50;;
26806;SDS011;14380;49.910;6.792;2023-07-24T11:28:41;0.57;;;0.57;;
26806;SDS011;14380;49.910;6.792;2023-07-24T11:31:08;1.35;;;0.63;;
26806;SDS011;14380;49.910;6.792;2023-07-24T11:33:34;0.63;;;0.45;;
26806;SDS011;14380;49.910;6.792;2023-07-24T11:36:02;0.80;;;0.68;;
26806;SDS011;14380;49.910;6.792;2023-07-24T11:38:29;1.13;;;0.50;;
26806;SDS011;14380;49.910;6.792;2023-07-24T11:40:58;1.23;;;0.90;;
26806;SDS011;14380;49.910;6.792;2023-07-24T11:43:25;3.05;;;1.05;;
26806;SDS011;14380;49.910;6.792;2023-07-24T11:45:52;1.05;;;0.45;;
26806;SDS011;14380;49.910;6.792;2023-07-24T11:48:20;1.05;;;0.50;;
26806;SDS011;14380;49.910;6.792;2023-07-24T11:50:49;1.08;;;0.30;;
26806;SDS011;14380;49.910;6.792;2023-07-24T11:53:20;0.90;;;0.50;;
26806;SDS011;14380;49.910;6.792;2023-07-24T11:55:49;0.68;;;0.50;;
26806;SDS011;14380;49.910;6.792;2023-07-24T11:58:18;0.47;;;0.30;;
26806;SDS011;14380;49.910;6.792;2023-07-24T12:00:45;1.65;;;0.52;;
26806;SDS011;14380;49.910;6.792;2023-07-24T12:03:13;0.55;;;0.50;;
26806;SDS011;14380;49.910;6.792;2023-07-24T12:05:41;1.27;;;0.68;;
26806;SDS011;14380;49.910;6.792;2023-07-24T12:08:08;2.85;;;0.45;;
26806;SDS011;14380;49.910;6.792;2023-07-24T12:10:36;1.15;;;0.70;;
26806;SDS011;14380;49.910;6.792;2023-07-24T12:13:04;0.57;;;0.52;;
26806;SDS011;14380;49.910;6.792;2023-07-24T12:15:33;1.63;;;0.82;;
26806;SDS011;14380;49.910;6.792;2023-07-24T12:18:00;1.42;;;0.85;;
26806;SDS011;14380;49.910;6.792;2023-07-24T12:20:27;0.73;;;0.50;;
26806;SDS011;14380;49.910;6.792;2023-07-24T12:22:55;0.93;;;0.70;;
26806;SDS011;14380;49.910;6.792;2023-07-24T12:25:22;2.03;;;0.43;;
26806;SDS011;14380;49.910;6.792;2023-07-24T12:27:49;0.85;;;0.50;;
26806;SDS011;14380;49.910;6.792;2023-07-24T12:30:16;0.77;;;0.30;;
26806;SDS011;14380;49.910;6.792;2023-07-24T12:32:45;1.55;;;0.80;;
26806;SDS011;14380;49.910;6.792;2023-07-24T12:35:11;0.68;;;0.50;;
26806;SDS011;14380;49.910;6.792;2023-07-24T12:37:38;2.83;;;0.50;;
26806;SDS011;14380;49.910;6.792;2023-07-24T12:40:06;0.90;;;0.50;;
26806;SDS011;14380;49.910;6.792;2023-07-24T12:42:34;4.43;;;1.13;;
26806;SDS011;14380;49.910;6.792;2023-07-24T12:45:02;0.70;;;0.50;;
26806;SDS011;14380;49.910;6.792;2023-07-24T12:47:29;0.80;;;0.65;;
26806;SDS011;14380;49.910;6.792;2023-07-24T12:49:58;0.40;;;0.40;;
26806;SDS011;14380;49.910;6.792;2023-07-24T12:52:25;0.85;;;0.63;;
26806;SDS011;14380;49.910;6.792;2023-07-24T12:54:52;0.25;;;0.20;;
26806;SDS011;14380;49.910;6.792;2023-07-24T12:57:19;0.40;;;0.40;;
26806;SDS011;14380;49.910;6.792;2023-07-24T12:59:46;0.38;;;0.38;;
26806;SDS011;14380;49.910;6.792;2023-07-24T13:02:12;1.13;;;0.40;;
26806;SDS011;14380;49.910;6.792;2023-07-24T13:04:39;0.75;;;0.68;;
26806;SDS011;14380;49.910;6.792;2023-07-24T13:07:07;1.92;;;0.70;;
26806;SDS011;14380;49.910;6.792;2023-07-24T13:09:34;0.60;;;0.60;;
26806;SDS011;14380;49.910;6.792;2023-07-24T13:12:01;0.30;;;0.30;;
26806;SDS011;14380;49.910;6.792;2023-07-24T13:14:28;0.30;;;0.30;;
26806;SDS011;14380;49.910;6.792;2023-07-24T13:16:55;1.25;;;0.82;;
26806;SDS011;14380;49.910;6.792;2023-07-24T13:19:21;2.08;;;0.20;;
26806;SDS011;14380;49.910;6.792;2023-07-24T13:21:48;0.10;;;0.10;;
26806;SDS011;14380;49.910;6.792;2023-07-24T13:24:17;0.85;;;0.43;;
26806;SDS011;14380;49.910;6.792;2023-07-24T13:26:43;0.45;;;0.43;;
26806;SDS011;14380;49.910;6.792;2023-07-24T13:29:10;0.20;;;0.20;;
26806;SDS011;14380;49.910;6.792;2023-07-24T13:31:38;0.75;;;0.30;;
26806;SDS011;14380;49.910;6.792;2023-07-24T13:34:06;0.38;;;0.20;;
26806;SDS011;14380;49.910;6.792;2023-07-24T13:36:33;0.63;;;0.40;;
26806;SDS011;14380;49.910;6.792;2023-07-24T13:39:00;0.13;;;0.10;;
26806;SDS011;14380;49.910;6.792;2023-07-24T13:41:29;0.30;;;0.10;;
26806;SDS011;14380;49.910;6.792;2023-07-24T13:43:56;0.98;;;0.10;;
26806;SDS011;14380;49.910;6.792;2023-07-24T13:46:23;0.20;;;0.13;;
26806;SDS011;14380;49.910;6.792;2023-07-24T13:48:49;0.38;;;0.25;;
26806;SDS011;14380;49.910;6.792;2023-07-24T13:51:16;0.30;;;0.28;;
26806;SDS011;14380;49.910;6.792;2023-07-24T13:53:43;0.60;;;0.30;;
26806;SDS011;14380;49.910;6.792;2023-07-24T13:56:12;0.30;;;0.20;;
26806;SDS011;14380;49.910;6.792;2023-07-24T13:58:41;0.10;;;0.10;;
26806;SDS011;14380;49.910;6.792;2023-07-24T14:01:08;0.52;;;0.52;;
26806;SDS011;14380;49.910;6.792;2023-07-24T14:03:35;0.17;;;0.15;;
26806;SDS011;14380;49.910;6.792;2023-07-24T14:06:02;0.13;;;0.13;;
26806;SDS011;14380;49.910;6.792;2023-07-24T14:08:28;0.10;;;0.10;;
26806;SDS011;14380;49.910;6.792;2023-07-24T14:10:55;0.20;;;0.20;;
26806;SDS011;14380;49.910;6.792;2023-07-24T14:13:22;0.10;;;0.10;;
26806;SDS011;14380;49.910;6.792;2023-07-24T14:15:52;0.22;;;0.22;;
26806;SDS011;14380;49.910;6.792;2023-07-24T14:18:18;0.57;;;0.40;;
26806;SDS011;14380;49.910;6.792;2023-07-24T14:20:45;0.17;;;0.17;;
26806;SDS011;14380;49.910;6.792;2023-07-24T14:23:12;0.30;;;0.30;;
26806;SDS011;14380;49.910;6.792;2023-07-24T14:25:39;0.35;;;0.22;;
26806;SDS011;14380;49.910;6.792;2023-07-24T14:28:06;0.17;;;0.10;;
26806;SDS011;14380;49.910;6.792;2023-07-24T14:30:32;0.45;;;0.35;;
26806;SDS011;14380;49.910;6.792;2023-07-24T14:33:01;0.75;;;0.40;;
26806;SDS011;14380;49.910;6.792;2023-07-24T14:35:28;0.30;;;0.30;;
26806;SDS011;14380;49.910;6.792;2023-07-24T14:37:54;0.20;;;0.20;;
26806;SDS011;14380;49.910;6.792;2023-07-24T14:40:21;0.55;;;0.43;;
26806;SDS011;14380;49.910;6.792;2023-07-24T14:42:48;0.40;;;0.40;;
26806;SDS011;14380;49.910;6.792;2023-07-24T14:45:15;0.40;;;0.20;;
26806;SDS011;14380;49.910;6.792;2023-07-24T14:47:42;1.83;;;0.38;;
26806;SDS011;14380;49.910;6.792;2023-07-24T14:50:10;0.20;;;0.17;;